sensor_id;sensor_type;location;lat;lon;timestamp;P1;durP1;ratioP1;P2;durP2;ratioP2
37205;SDS011;23099;42.636;23.198;2023-09-08T00:00:43;11.98;;;8.10;;
37205;SDS011;23099;42.636;23.198;2023-09-08T00:03:10;14.98;;;8.25;;
37205;SDS011;23099;42.636;23.198;2023-09-08T00:05:36;12.32;;;8.02;;
37205;SDS011;23099;42.636;23.198;2023-09-08T00:08:03;12.27;;;8.35;;
37205;SDS011;23099;42.636;23.198;2023-09-08T00:10:30;12.07;;;8.23;;
37205;SDS011;23099;42.636;23.198;2023-09-08T00:12:58;13.60;;;8.80;;
37205;SDS011;23099;42.636;23.198;2023-09-08T00:15:25;13.75;;;9.65;;
37205;SDS011;23099;42.636;23.198;2023-09-08T00:17:52;19.58;;;11.25;;
37205;SDS011;23099;42.636;23.198;2023-09-08T00:20:18;17.50;;;10.68;;
37205;SDS011;23099;42.636;23.198;2023-09-08T00:22:46;17.08;;;10.40;;
37205;SDS011;23099;42.636;23.198;2023-09-08T00:25:13;14.30;;;9.73;;
37205;SDS011;23099;42.636;23.198;2023-09-08T00:27:39;14.32;;;9.95;;
37205;SDS011;23099;42.636;23.198;2023-09-08T00:30:08;16.15;;;9.25;;
37205;SDS011;23099;42.636;23.198;2023-09-08T00:32:35;14.98;;;9.75;;
37205;SDS011;23099;42.636;23.198;2023-09-08T00:35:02;12.02;;;8.57;;
37205;SDS011;23099;42.636;23.198;2023-09-08T00:37:32;13.82;;;7.55;;
37205;SDS011;23099;42.636;23.198;2023-09-08T00:39:58;14.70;;;7.70;;
37205;SDS011;23099;42.636;23.198;2023-09-08T00:42:25;8.95;;;6.32;;
37205;SDS011;23099;42.636;23.198;2023-09-08T00:44:52;15.57;;;6.38;;
37205;SDS011;23099;42.636;23.198;2023-09-08T00:47:20;9.63;;;5.03;;
37205;SDS011;23099;42.636;23.198;2023-09-08T00:49:46;9.27;;;5.00;;
37205;SDS011;23099;42.636;23.198;2023-09-08T00:52:14;11.23;;;5.07;;
37205;SDS011;23099;42.636;23.198;2023-09-08T00:54:41;13.48;;;5.25;;
37205;SDS011;23099;42.636;23.198;2023-09-08T00:57:07;10.73;;;4.63;;
37205;SDS011;23099;42.636;23.198;2023-09-08T00:59:35;10.65;;;4.47;;
37205;SDS011;23099;42.636;23.198;2023-09-08T01:02:03;10.95;;;5.47;;
37205;SDS011;23099;42.636;23.198;2023-09-08T01:04:31;11.30;;;4.55;;
37205;SDS011;23099;42.636;23.198;2023-09-08T01:06:58;10.93;;;4.80;;
37205;SDS011;23099;42.636;23.198;2023-09-08T01:09:26;9.52;;;4.35;;
37205;SDS011;23099;42.636;23.198;2023-09-08T01:11:53;9.77;;;4.85;;
37205;SDS011;23099;42.636;23.198;2023-09-08T01:14:26;11.35;;;4.72;;
37205;SDS011;23099;42.636;23.198;2023-09-08T01:16:53;9.68;;;4.68;;
37205;SDS011;23099;42.636;23.198;2023-09-08T01:19:20;7.45;;;4.18;;
37205;SDS011;23099;42.636;23.198;2023-09-08T01:27:49;7.80;;;3.75;;
37205;SDS011;23099;42.636;23.198;2023-09-08T01:30:17;7.82;;;3.63;;
37205;SDS011;23099;42.636;23.198;2023-09-08T01:32:44;9.95;;;4.00;;
37205;SDS011;23099;42.636;23.198;2023-09-08T01:35:12;11.57;;;4.18;;
37205;SDS011;23099;42.636;23.198;2023-09-08T01:37:39;9.25;;;3.58;;
37205;SDS011;23099;42.636;23.198;2023-09-08T01:40:07;8.07;;;3.58;;
37205;SDS011;23099;42.636;23.198;2023-09-08T01:42:36;8.55;;;3.70;;
37205;SDS011;23099;42.636;23.198;2023-09-08T01:45:04;7.82;;;3.72;;
37205;SDS011;23099;42.636;23.198;2023-09-08T01:47:31;9.35;;;3.85;;
37205;SDS011;23099;42.636;23.198;2023-09-08T01:49:58;6.90;;;3.47;;
37205;SDS011;23099;42.636;23.198;2023-09-08T01:52:25;8.98;;;3.92;;
37205;SDS011;23099;42.636;23.198;2023-09-08T01:54:51;12.55;;;3.78;;
37205;SDS011;23099;42.636;23.198;2023-09-08T01:57:18;10.23;;;3.88;;
37205;SDS011;23099;42.636;23.198;2023-09-08T01:59:46;7.05;;;3.58;;
37205;SDS011;23099;42.636;23.198;2023-09-08T02:02:14;13.57;;;3.92;;
37205;SDS011;23099;42.636;23.198;2023-09-08T02:04:40;10.07;;;3.53;;
37205;SDS011;23099;42.636;23.198;2023-09-08T02:07:07;8.15;;;3.88;;
37205;SDS011;23099;42.636;23.198;2023-09-08T02:09:34;10.27;;;3.67;;
37205;SDS011;23099;42.636;23.198;2023-09-08T02:12:02;10.82;;;4.05;;
37205;SDS011;23099;42.636;23.198;2023-09-08T02:14:30;7.73;;;3.60;;
37205;SDS011;23099;42.636;23.198;2023-09-08T02:16:58;10.73;;;3.85;;
37205;SDS011;23099;42.636;23.198;2023-09-08T02:19:24;8.45;;;4.38;;
37205;SDS011;23099;42.636;23.198;2023-09-08T02:21:51;8.77;;;4.32;;
37205;SDS011;23099;42.636;23.198;2023-09-08T02:24:18;8.52;;;3.78;;
37205;SDS011;23099;42.636;23.198;2023-09-08T02:26:44;8.30;;;4.32;;
37205;SDS011;23099;42.636;23.198;2023-09-08T02:29:11;9.57;;;4.28;;
37205;SDS011;23099;42.636;23.198;2023-09-08T02:31:38;10.20;;;4.22;;
37205;SDS011;23099;42.636;23.198;2023-09-08T02:34:07;9.25;;;4.30;;
37205;SDS011;23099;42.636;23.198;2023-09-08T02:36:34;10.80;;;5.07;;
37205;SDS011;23099;42.636;23.198;2023-09-08T02:39:00;9.50;;;4.57;;
37205;SDS011;23099;42.636;23.198;2023-09-08T02:41:27;10.60;;;4.75;;
37205;SDS011;23099;42.636;23.198;2023-09-08T02:43:54;7.93;;;4.53;;
37205;SDS011;23099;42.636;23.198;2023-09-08T02:46:20;11.35;;;5.32;;
37205;SDS011;23099;42.636;23.198;2023-09-08T02:48:47;13.55;;;5.38;;
37205;SDS011;23099;42.636;23.198;2023-09-08T02:51:15;11.10;;;4.93;;
37205;SDS011;23099;42.636;23.198;2023-09-08T02:53:42;9.98;;;4.57;;
37205;SDS011;23099;42.636;23.198;2023-09-08T02:56:08;10.20;;;5.07;;
37205;SDS011;23099;42.636;23.198;2023-09-08T02:58:35;10.43;;;5.45;;
37205;SDS011;23099;42.636;23.198;2023-09-08T03:01:11;12.48;;;4.93;;
37205;SDS011;23099;42.636;23.198;2023-09-08T03:03:39;13.55;;;5.60;;
37205;SDS011;23099;42.636;23.198;2023-09-08T03:06:07;14.90;;;6.30;;
37205;SDS011;23099;42.636;23.198;2023-09-08T03:08:35;11.90;;;6.60;;
37205;SDS011;23099;42.636;23.198;2023-09-08T03:11:03;12.43;;;6.50;;
37205;SDS011;23099;42.636;23.198;2023-09-08T03:13:30;14.45;;;7.18;;
37205;SDS011;23099;42.636;23.198;2023-09-08T03:15:58;12.43;;;6.75;;
37205;SDS011;23099;42.636;23.198;2023-09-08T03:18:29;16.30;;;7.65;;
37205;SDS011;23099;42.636;23.198;2023-09-08T03:20:57;14.45;;;7.70;;
37205;SDS011;23099;42.636;23.198;2023-09-08T03:23:24;13.50;;;7.47;;
37205;SDS011;23099;42.636;23.198;2023-09-08T03:25:52;17.45;;;8.02;;
37205;SDS011;23099;42.636;23.198;2023-09-08T03:28:18;11.95;;;7.65;;
37205;SDS011;23099;42.636;23.198;2023-09-08T03:30:45;14.88;;;8.23;;
37205;SDS011;23099;42.636;23.198;2023-09-08T03:33:12;15.13;;;8.00;;
37205;SDS011;23099;42.636;23.198;2023-09-08T03:35:38;14.10;;;8.20;;
37205;SDS011;23099;42.636;23.198;2023-09-08T03:38:05;17.27;;;8.20;;
37205;SDS011;23099;42.636;23.198;2023-09-08T03:40:32;14.13;;;8.65;;
37205;SDS011;23099;42.636;23.198;2023-09-08T03:43:00;16.88;;;8.30;;
37205;SDS011;23099;42.636;23.198;2023-09-08T03:45:26;16.92;;;9.02;;
37205;SDS011;23099;42.636;23.198;2023-09-08T03:47:53;14.02;;;7.90;;
37205;SDS011;23099;42.636;23.198;2023-09-08T03:50:20;15.32;;;8.10;;
37205;SDS011;23099;42.636;23.198;2023-09-08T03:52:46;17.83;;;9.02;;
37205;SDS011;23099;42.636;23.198;2023-09-08T03:55:13;16.58;;;8.50;;
37205;SDS011;23099;42.636;23.198;2023-09-08T03:57:40;14.75;;;8.82;;
37205;SDS011;23099;42.636;23.198;2023-09-08T04:00:08;15.48;;;8.25;;
37205;SDS011;23099;42.636;23.198;2023-09-08T04:02:36;14.27;;;8.27;;
37205;SDS011;23099;42.636;23.198;2023-09-08T04:05:04;14.30;;;8.88;;
37205;SDS011;23099;42.636;23.198;2023-09-08T04:07:31;16.08;;;8.68;;
37205;SDS011;23099;42.636;23.198;2023-09-08T04:09:57;14.05;;;8.05;;
37205;SDS011;23099;42.636;23.198;2023-09-08T04:12:24;13.02;;;7.82;;
37205;SDS011;23099;42.636;23.198;2023-09-08T04:14:51;14.68;;;9.00;;
37205;SDS011;23099;42.636;23.198;2023-09-08T04:17:19;15.23;;;9.15;;
37205;SDS011;23099;42.636;23.198;2023-09-08T04:19:46;14.70;;;8.15;;
37205;SDS011;23099;42.636;23.198;2023-09-08T04:22:12;12.93;;;8.00;;
37205;SDS011;23099;42.636;23.198;2023-09-08T04:24:39;13.68;;;8.10;;
37205;SDS011;23099;42.636;23.198;2023-09-08T04:27:06;13.30;;;8.13;;
37205;SDS011;23099;42.636;23.198;2023-09-08T04:29:33;15.40;;;8.18;;
37205;SDS011;23099;42.636;23.198;2023-09-08T04:32:00;12.98;;;8.50;;
37205;SDS011;23099;42.636;23.198;2023-09-08T04:34:35;17.77;;;8.70;;
37205;SDS011;23099;42.636;23.198;2023-09-08T04:37:02;14.43;;;8.55;;
37205;SDS011;23099;42.636;23.198;2023-09-08T04:39:29;13.45;;;8.68;;
37205;SDS011;23099;42.636;23.198;2023-09-08T04:41:56;16.40;;;8.98;;
37205;SDS011;23099;42.636;23.198;2023-09-08T04:44:23;17.52;;;8.32;;
37205;SDS011;23099;42.636;23.198;2023-09-08T04:46:49;13.02;;;8.57;;
37205;SDS011;23099;42.636;23.198;2023-09-08T04:49:17;12.52;;;8.70;;
37205;SDS011;23099;42.636;23.198;2023-09-08T04:51:45;16.92;;;9.07;;
37205;SDS011;23099;42.636;23.198;2023-09-08T04:54:12;17.98;;;9.18;;
37205;SDS011;23099;42.636;23.198;2023-09-08T04:56:38;15.20;;;8.55;;
37205;SDS011;23099;42.636;23.198;2023-09-08T04:59:05;14.25;;;9.02;;
37205;SDS011;23099;42.636;23.198;2023-09-08T05:01:32;13.88;;;7.88;;
37205;SDS011;23099;42.636;23.198;2023-09-08T05:04:02;12.02;;;8.73;;
37205;SDS011;23099;42.636;23.198;2023-09-08T05:06:28;13.85;;;8.73;;
37205;SDS011;23099;42.636;23.198;2023-09-08T05:08:57;16.08;;;8.20;;
37205;SDS011;23099;42.636;23.198;2023-09-08T05:11:25;15.57;;;8.52;;
37205;SDS011;23099;42.636;23.198;2023-09-08T05:13:52;16.48;;;8.82;;
37205;SDS011;23099;42.636;23.198;2023-09-08T05:16:19;14.35;;;8.63;;
37205;SDS011;23099;42.636;23.198;2023-09-08T05:19:01;11.98;;;7.95;;
37205;SDS011;23099;42.636;23.198;2023-09-08T05:21:27;14.45;;;9.05;;
37205;SDS011;23099;42.636;23.198;2023-09-08T05:23:54;18.33;;;9.43;;
37205;SDS011;23099;42.636;23.198;2023-09-08T05:26:22;15.65;;;8.93;;
37205;SDS011;23099;42.636;23.198;2023-09-08T05:28:49;13.50;;;7.93;;
37205;SDS011;23099;42.636;23.198;2023-09-08T05:31:15;13.25;;;7.45;;
37205;SDS011;23099;42.636;23.198;2023-09-08T05:33:42;15.48;;;7.80;;
37205;SDS011;23099;42.636;23.198;2023-09-08T05:36:09;10.90;;;6.90;;
37205;SDS011;23099;42.636;23.198;2023-09-08T05:38:35;13.20;;;6.75;;
37205;SDS011;23099;42.636;23.198;2023-09-08T05:41:02;15.05;;;7.15;;
37205;SDS011;23099;42.636;23.198;2023-09-08T05:43:30;12.13;;;7.15;;
37205;SDS011;23099;42.636;23.198;2023-09-08T05:45:57;15.63;;;6.63;;
37205;SDS011;23099;42.636;23.198;2023-09-08T05:48:23;14.13;;;6.60;;
37205;SDS011;23099;42.636;23.198;2023-09-08T05:50:50;12.40;;;6.20;;
37205;SDS011;23099;42.636;23.198;2023-09-08T05:53:17;9.52;;;5.18;;
37205;SDS011;23099;42.636;23.198;2023-09-08T05:55:43;12.60;;;5.95;;
37205;SDS011;23099;42.636;23.198;2023-09-08T05:58:10;10.57;;;5.72;;
37205;SDS011;23099;42.636;23.198;2023-09-08T06:00:38;11.80;;;5.10;;
37205;SDS011;23099;42.636;23.198;2023-09-08T06:03:05;9.88;;;4.95;;
37205;SDS011;23099;42.636;23.198;2023-09-08T06:05:32;10.05;;;4.97;;
37205;SDS011;23099;42.636;23.198;2023-09-08T06:07:58;11.20;;;4.78;;
37205;SDS011;23099;42.636;23.198;2023-09-08T06:10:25;10.20;;;4.07;;
37205;SDS011;23099;42.636;23.198;2023-09-08T06:12:51;8.63;;;3.90;;
37205;SDS011;23099;42.636;23.198;2023-09-08T06:15:18;10.27;;;3.90;;
37205;SDS011;23099;42.636;23.198;2023-09-08T06:17:46;9.40;;;3.80;;
37205;SDS011;23099;42.636;23.198;2023-09-08T06:20:13;11.57;;;3.72;;
37205;SDS011;23099;42.636;23.198;2023-09-08T06:22:41;10.85;;;4.38;;
37205;SDS011;23099;42.636;23.198;2023-09-08T06:25:08;9.57;;;3.38;;
37205;SDS011;23099;42.636;23.198;2023-09-08T06:27:35;11.97;;;3.30;;
37205;SDS011;23099;42.636;23.198;2023-09-08T06:30:02;10.38;;;3.58;;
37205;SDS011;23099;42.636;23.198;2023-09-08T06:32:29;8.70;;;3.23;;
37205;SDS011;23099;42.636;23.198;2023-09-08T06:34:57;7.00;;;3.50;;
37205;SDS011;23099;42.636;23.198;2023-09-08T06:37:24;8.52;;;3.25;;
37205;SDS011;23099;42.636;23.198;2023-09-08T06:39:50;10.80;;;3.15;;
37205;SDS011;23099;42.636;23.198;2023-09-08T06:42:17;9.27;;;3.20;;
37205;SDS011;23099;42.636;23.198;2023-09-08T06:44:44;8.23;;;3.10;;
37205;SDS011;23099;42.636;23.198;2023-09-08T06:47:10;6.32;;;2.60;;
37205;SDS011;23099;42.636;23.198;2023-09-08T06:49:37;11.15;;;3.33;;
37205;SDS011;23099;42.636;23.198;2023-09-08T06:52:05;7.82;;;2.95;;
37205;SDS011;23099;42.636;23.198;2023-09-08T06:54:32;7.40;;;2.80;;
37205;SDS011;23099;42.636;23.198;2023-09-08T06:56:59;8.05;;;2.90;;
37205;SDS011;23099;42.636;23.198;2023-09-08T06:59:26;7.53;;;2.83;;
37205;SDS011;23099;42.636;23.198;2023-09-08T07:01:52;12.43;;;2.67;;
37205;SDS011;23099;42.636;23.198;2023-09-08T07:04:19;8.13;;;2.60;;
37205;SDS011;23099;42.636;23.198;2023-09-08T07:06:46;9.27;;;2.78;;
37205;SDS011;23099;42.636;23.198;2023-09-08T07:09:16;6.35;;;2.58;;
37205;SDS011;23099;42.636;23.198;2023-09-08T07:11:43;8.13;;;2.25;;
37205;SDS011;23099;42.636;23.198;2023-09-08T07:14:09;7.72;;;2.67;;
37205;SDS011;23099;42.636;23.198;2023-09-08T07:16:36;7.18;;;2.60;;
37205;SDS011;23099;42.636;23.198;2023-09-08T07:19:03;7.65;;;2.67;;
37205;SDS011;23099;42.636;23.198;2023-09-08T07:21:29;6.65;;;2.22;;
37205;SDS011;23099;42.636;23.198;2023-09-08T07:23:56;7.10;;;2.35;;
37205;SDS011;23099;42.636;23.198;2023-09-08T07:26:24;11.68;;;2.85;;
37205;SDS011;23099;42.636;23.198;2023-09-08T07:28:51;10.50;;;2.20;;
37205;SDS011;23099;42.636;23.198;2023-09-08T07:31:18;9.27;;;2.53;;
37205;SDS011;23099;42.636;23.198;2023-09-08T07:33:44;12.48;;;2.60;;
37205;SDS011;23099;42.636;23.198;2023-09-08T07:36:11;5.20;;;2.28;;
37205;SDS011;23099;42.636;23.198;2023-09-08T07:38:38;7.20;;;2.70;;
37205;SDS011;23099;42.636;23.198;2023-09-08T07:41:05;5.50;;;2.10;;
37205;SDS011;23099;42.636;23.198;2023-09-08T07:43:33;11.23;;;2.55;;
37205;SDS011;23099;42.636;23.198;2023-09-08T07:46:05;6.28;;;2.28;;
37205;SDS011;23099;42.636;23.198;2023-09-08T07:48:32;6.75;;;2.55;;
37205;SDS011;23099;42.636;23.198;2023-09-08T07:50:59;6.72;;;2.47;;
37205;SDS011;23099;42.636;23.198;2023-09-08T07:53:25;7.65;;;2.08;;
37205;SDS011;23099;42.636;23.198;2023-09-08T07:55:52;5.63;;;2.45;;
37205;SDS011;23099;42.636;23.198;2023-09-08T07:58:19;7.70;;;2.70;;
37205;SDS011;23099;42.636;23.198;2023-09-08T08:00:47;6.28;;;2.47;;
37205;SDS011;23099;42.636;23.198;2023-09-08T08:03:14;7.80;;;2.40;;
37205;SDS011;23099;42.636;23.198;2023-09-08T08:05:41;6.55;;;2.45;;
37205;SDS011;23099;42.636;23.198;2023-09-08T08:08:07;6.35;;;2.00;;
37205;SDS011;23099;42.636;23.198;2023-09-08T08:10:34;6.88;;;2.25;;
37205;SDS011;23099;42.636;23.198;2023-09-08T08:13:01;7.22;;;2.45;;
37205;SDS011;23099;42.636;23.198;2023-09-08T08:15:34;5.68;;;2.30;;
37205;SDS011;23099;42.636;23.198;2023-09-08T08:18:03;7.13;;;2.63;;
37205;SDS011;23099;42.636;23.198;2023-09-08T08:20:30;8.30;;;2.50;;
37205;SDS011;23099;42.636;23.198;2023-09-08T08:22:59;5.35;;;1.85;;
37205;SDS011;23099;42.636;23.198;2023-09-08T08:25:26;8.68;;;2.50;;
37205;SDS011;23099;42.636;23.198;2023-09-08T08:27:53;7.03;;;2.50;;
37205;SDS011;23099;42.636;23.198;2023-09-08T08:30:20;8.38;;;2.63;;
37205;SDS011;23099;42.636;23.198;2023-09-08T08:32:46;7.28;;;2.38;;
37205;SDS011;23099;42.636;23.198;2023-09-08T08:35:14;7.60;;;2.45;;
37205;SDS011;23099;42.636;23.198;2023-09-08T08:37:41;6.18;;;1.85;;
37205;SDS011;23099;42.636;23.198;2023-09-08T08:40:09;6.85;;;2.17;;
37205;SDS011;23099;42.636;23.198;2023-09-08T08:42:37;5.38;;;1.92;;
37205;SDS011;23099;42.636;23.198;2023-09-08T08:45:04;6.32;;;2.20;;
37205;SDS011;23099;42.636;23.198;2023-09-08T08:47:31;6.78;;;1.90;;
37205;SDS011;23099;42.636;23.198;2023-09-08T08:49:59;7.03;;;2.25;;
37205;SDS011;23099;42.636;23.198;2023-09-08T08:52:28;6.18;;;2.05;;
37205;SDS011;23099;42.636;23.198;2023-09-08T08:54:55;8.52;;;2.40;;
37205;SDS011;23099;42.636;23.198;2023-09-08T08:57:22;7.18;;;1.98;;
37205;SDS011;23099;42.636;23.198;2023-09-08T08:59:52;5.53;;;2.10;;
37205;SDS011;23099;42.636;23.198;2023-09-08T09:02:19;4.30;;;2.15;;
37205;SDS011;23099;42.636;23.198;2023-09-08T09:04:47;4.95;;;1.98;;
37205;SDS011;23099;42.636;23.198;2023-09-08T09:07:14;5.10;;;2.00;;
37205;SDS011;23099;42.636;23.198;2023-09-08T09:09:45;9.18;;;1.92;;
37205;SDS011;23099;42.636;23.198;2023-09-08T09:12:12;4.28;;;1.80;;
37205;SDS011;23099;42.636;23.198;2023-09-08T09:14:39;5.45;;;2.03;;
37205;SDS011;23099;42.636;23.198;2023-09-08T09:17:13;8.98;;;2.20;;
37205;SDS011;23099;42.636;23.198;2023-09-08T09:19:40;7.28;;;2.13;;
37205;SDS011;23099;42.636;23.198;2023-09-08T09:22:07;9.95;;;2.13;;
37205;SDS011;23099;42.636;23.198;2023-09-08T09:24:34;5.53;;;1.90;;
37205;SDS011;23099;42.636;23.198;2023-09-08T09:27:07;7.30;;;2.13;;
37205;SDS011;23099;42.636;23.198;2023-09-08T09:29:34;8.00;;;2.33;;
37205;SDS011;23099;42.636;23.198;2023-09-08T09:32:11;6.82;;;2.00;;
37205;SDS011;23099;42.636;23.198;2023-09-08T09:34:41;4.57;;;1.80;;
37205;SDS011;23099;42.636;23.198;2023-09-08T09:37:14;6.93;;;2.00;;
37205;SDS011;23099;42.636;23.198;2023-09-08T09:39:40;7.15;;;1.90;;
37205;SDS011;23099;42.636;23.198;2023-09-08T09:42:08;8.00;;;2.33;;
37205;SDS011;23099;42.636;23.198;2023-09-08T09:44:35;6.68;;;2.08;;
37205;SDS011;23099;42.636;23.198;2023-09-08T09:47:02;6.10;;;2.17;;
37205;SDS011;23099;42.636;23.198;2023-09-08T09:51:57;4.95;;;2.05;;
37205;SDS011;23099;42.636;23.198;2023-09-08T09:54:24;6.05;;;2.17;;
37205;SDS011;23099;42.636;23.198;2023-09-08T09:56:51;7.30;;;3.08;;
37205;SDS011;23099;42.636;23.198;2023-09-08T09:59:20;7.00;;;2.63;;
37205;SDS011;23099;42.636;23.198;2023-09-08T10:01:48;9.00;;;2.30;;
37205;SDS011;23099;42.636;23.198;2023-09-08T10:04:16;7.07;;;2.80;;
37205;SDS011;23099;42.636;23.198;2023-09-08T10:06:43;6.63;;;2.10;;
37205;SDS011;23099;42.636;23.198;2023-09-08T10:11:41;8.18;;;2.60;;
37205;SDS011;23099;42.636;23.198;2023-09-08T10:14:09;6.05;;;2.10;;
37205;SDS011;23099;42.636;23.198;2023-09-08T10:16:39;7.93;;;1.92;;
37205;SDS011;23099;42.636;23.198;2023-09-08T10:19:09;6.72;;;2.50;;
37205;SDS011;23099;42.636;23.198;2023-09-08T10:21:39;6.53;;;2.20;;
37205;SDS011;23099;42.636;23.198;2023-09-08T10:24:10;8.43;;;2.55;;
37205;SDS011;23099;42.636;23.198;2023-09-08T10:26:43;7.03;;;2.90;;
37205;SDS011;23099;42.636;23.198;2023-09-08T10:29:13;5.82;;;2.10;;
37205;SDS011;23099;42.636;23.198;2023-09-08T10:31:42;7.87;;;2.20;;
37205;SDS011;23099;42.636;23.198;2023-09-08T10:34:10;6.90;;;2.53;;
37205;SDS011;23099;42.636;23.198;2023-09-08T10:36:38;7.88;;;2.25;;
37205;SDS011;23099;42.636;23.198;2023-09-08T10:45:01;6.65;;;2.03;;
37205;SDS011;23099;42.636;23.198;2023-09-08T10:47:33;5.15;;;2.22;;
37205;SDS011;23099;42.636;23.198;2023-09-08T10:50:08;8.10;;;2.00;;
37205;SDS011;23099;42.636;23.198;2023-09-08T10:52:42;5.30;;;1.73;;
37205;SDS011;23099;42.636;23.198;2023-09-08T10:55:08;4.82;;;1.90;;
37205;SDS011;23099;42.636;23.198;2023-09-08T10:57:37;4.55;;;1.77;;
37205;SDS011;23099;42.636;23.198;2023-09-08T11:00:04;6.60;;;2.47;;
37205;SDS011;23099;42.636;23.198;2023-09-08T11:02:38;6.55;;;2.33;;
37205;SDS011;23099;42.636;23.198;2023-09-08T11:05:07;8.60;;;2.15;;
37205;SDS011;23099;42.636;23.198;2023-09-08T11:07:36;7.95;;;1.83;;
37205;SDS011;23099;42.636;23.198;2023-09-08T11:10:03;8.57;;;2.17;;
37205;SDS011;23099;42.636;23.198;2023-09-08T11:12:31;8.40;;;2.42;;
37205;SDS011;23099;42.636;23.198;2023-09-08T11:14:58;6.90;;;2.10;;
37205;SDS011;23099;42.636;23.198;2023-09-08T11:17:27;4.85;;;1.90;;
37205;SDS011;23099;42.636;23.198;2023-09-08T11:19:55;5.63;;;2.20;;
37205;SDS011;23099;42.636;23.198;2023-09-08T11:22:22;7.30;;;2.15;;
37205;SDS011;23099;42.636;23.198;2023-09-08T11:24:50;4.10;;;1.95;;
37205;SDS011;23099;42.636;23.198;2023-09-08T11:27:18;5.90;;;2.33;;
37205;SDS011;23099;42.636;23.198;2023-09-08T11:29:44;7.35;;;2.38;;
37205;SDS011;23099;42.636;23.198;2023-09-08T11:32:11;8.95;;;2.53;;
37205;SDS011;23099;42.636;23.198;2023-09-08T11:34:38;5.73;;;2.00;;
37205;SDS011;23099;42.636;23.198;2023-09-08T11:39:36;6.18;;;2.08;;
37205;SDS011;23099;42.636;23.198;2023-09-08T11:42:04;6.60;;;2.20;;
37205;SDS011;23099;42.636;23.198;2023-09-08T11:44:31;5.68;;;2.15;;
37205;SDS011;23099;42.636;23.198;2023-09-08T11:46:59;10.00;;;2.65;;
37205;SDS011;23099;42.636;23.198;2023-09-08T11:49:25;7.30;;;2.75;;
37205;SDS011;23099;42.636;23.198;2023-09-08T11:51:52;7.38;;;2.10;;
37205;SDS011;23099;42.636;23.198;2023-09-08T11:54:20;5.13;;;2.42;;
37205;SDS011;23099;42.636;23.198;2023-09-08T11:59:13;8.55;;;2.15;;
37205;SDS011;23099;42.636;23.198;2023-09-08T12:01:40;7.55;;;1.98;;
37205;SDS011;23099;42.636;23.198;2023-09-08T12:04:13;4.95;;;1.98;;
37205;SDS011;23099;42.636;23.198;2023-09-08T12:06:43;6.30;;;2.25;;
37205;SDS011;23099;42.636;23.198;2023-09-08T12:09:10;6.90;;;2.33;;
37205;SDS011;23099;42.636;23.198;2023-09-08T12:11:40;5.70;;;1.90;;
37205;SDS011;23099;42.636;23.198;2023-09-08T12:14:08;6.38;;;1.90;;
37205;SDS011;23099;42.636;23.198;2023-09-08T12:16:36;6.07;;;2.20;;
37205;SDS011;23099;42.636;23.198;2023-09-08T12:19:03;7.40;;;2.25;;
37205;SDS011;23099;42.636;23.198;2023-09-08T12:21:30;6.45;;;2.30;;
37205;SDS011;23099;42.636;23.198;2023-09-08T12:23:58;7.30;;;2.23;;
37205;SDS011;23099;42.636;23.198;2023-09-08T12:26:24;8.73;;;2.40;;
37205;SDS011;23099;42.636;23.198;2023-09-08T12:28:53;6.75;;;2.83;;
37205;SDS011;23099;42.636;23.198;2023-09-08T12:31:19;5.50;;;2.20;;
37205;SDS011;23099;42.636;23.198;2023-09-08T12:33:47;8.45;;;2.70;;
37205;SDS011;23099;42.636;23.198;2023-09-08T12:36:14;12.38;;;2.72;;
37205;SDS011;23099;42.636;23.198;2023-09-08T12:38:46;12.48;;;2.05;;
37205;SDS011;23099;42.636;23.198;2023-09-08T12:41:13;5.97;;;1.88;;
37205;SDS011;23099;42.636;23.198;2023-09-08T12:43:40;5.95;;;2.15;;
37205;SDS011;23099;42.636;23.198;2023-09-08T12:46:08;4.93;;;2.40;;
37205;SDS011;23099;42.636;23.198;2023-09-08T12:51:01;5.38;;;2.28;;
37205;SDS011;23099;42.636;23.198;2023-09-08T12:53:29;7.10;;;2.35;;
37205;SDS011;23099;42.636;23.198;2023-09-08T12:55:59;8.45;;;1.98;;
37205;SDS011;23099;42.636;23.198;2023-09-08T12:58:26;7.43;;;2.10;;
37205;SDS011;23099;42.636;23.198;2023-09-08T13:00:53;5.10;;;2.10;;
37205;SDS011;23099;42.636;23.198;2023-09-08T13:03:22;6.13;;;2.33;;
37205;SDS011;23099;42.636;23.198;2023-09-08T13:05:49;9.07;;;2.33;;
37205;SDS011;23099;42.636;23.198;2023-09-08T13:08:15;5.70;;;1.90;;
37205;SDS011;23099;42.636;23.198;2023-09-08T13:10:42;5.38;;;2.28;;
37205;SDS011;23099;42.636;23.198;2023-09-08T13:13:09;8.10;;;2.20;;
37205;SDS011;23099;42.636;23.198;2023-09-08T13:15:35;6.70;;;2.22;;
37205;SDS011;23099;42.636;23.198;2023-09-08T13:18:02;6.32;;;2.30;;
37205;SDS011;23099;42.636;23.198;2023-09-08T13:20:30;7.32;;;2.00;;
37205;SDS011;23099;42.636;23.198;2023-09-08T13:25:23;6.90;;;2.67;;
37205;SDS011;23099;42.636;23.198;2023-09-08T13:27:50;5.63;;;2.40;;
37205;SDS011;23099;42.636;23.198;2023-09-08T13:30:17;5.78;;;2.47;;
37205;SDS011;23099;42.636;23.198;2023-09-08T13:32:46;7.28;;;2.38;;
37205;SDS011;23099;42.636;23.198;2023-09-08T13:35:13;6.40;;;2.28;;
37205;SDS011;23099;42.636;23.198;2023-09-08T13:37:41;5.97;;;2.38;;
37205;SDS011;23099;42.636;23.198;2023-09-08T13:42:34;6.18;;;2.25;;
37205;SDS011;23099;42.636;23.198;2023-09-08T13:45:01;5.47;;;2.35;;
37205;SDS011;23099;42.636;23.198;2023-09-08T13:47:31;9.13;;;2.75;;
37205;SDS011;23099;42.636;23.198;2023-09-08T13:49:58;5.95;;;2.13;;
37205;SDS011;23099;42.636;23.198;2023-09-08T13:52:24;5.47;;;2.20;;
37205;SDS011;23099;42.636;23.198;2023-09-08T13:54:52;9.82;;;2.17;;
37205;SDS011;23099;42.636;23.198;2023-09-08T13:59:46;6.75;;;2.50;;
37205;SDS011;23099;42.636;23.198;2023-09-08T14:02:13;8.63;;;2.20;;
37205;SDS011;23099;42.636;23.198;2023-09-08T14:04:39;6.07;;;2.53;;
37205;SDS011;23099;42.636;23.198;2023-09-08T14:07:07;6.55;;;1.98;;
37205;SDS011;23099;42.636;23.198;2023-09-08T14:09:34;10.40;;;2.73;;
37205;SDS011;23099;42.636;23.198;2023-09-08T14:12:02;6.22;;;2.90;;
37205;SDS011;23099;42.636;23.198;2023-09-08T14:14:29;5.93;;;2.20;;
37205;SDS011;23099;42.636;23.198;2023-09-08T14:16:56;5.38;;;2.20;;
37205;SDS011;23099;42.636;23.198;2023-09-08T14:19:23;5.90;;;2.67;;
37205;SDS011;23099;42.636;23.198;2023-09-08T14:21:49;5.70;;;2.63;;
37205;SDS011;23099;42.636;23.198;2023-09-08T14:24:16;6.60;;;2.08;;
37205;SDS011;23099;42.636;23.198;2023-09-08T14:26:43;6.57;;;2.33;;
37205;SDS011;23099;42.636;23.198;2023-09-08T14:29:11;4.75;;;2.33;;
37205;SDS011;23099;42.636;23.198;2023-09-08T14:31:38;5.72;;;2.20;;
37205;SDS011;23099;42.636;23.198;2023-09-08T14:34:04;6.28;;;2.00;;
37205;SDS011;23099;42.636;23.198;2023-09-08T14:36:31;6.68;;;2.90;;
37205;SDS011;23099;42.636;23.198;2023-09-08T14:38:58;7.07;;;2.17;;
37205;SDS011;23099;42.636;23.198;2023-09-08T14:41:25;6.70;;;2.58;;
37205;SDS011;23099;42.636;23.198;2023-09-08T14:43:51;5.82;;;2.45;;
37205;SDS011;23099;42.636;23.198;2023-09-08T14:46:19;8.55;;;2.72;;
37205;SDS011;23099;42.636;23.198;2023-09-08T14:48:46;6.55;;;2.20;;
37205;SDS011;23099;42.636;23.198;2023-09-08T14:51:13;7.63;;;2.60;;
37205;SDS011;23099;42.636;23.198;2023-09-08T14:53:39;6.28;;;2.80;;
37205;SDS011;23099;42.636;23.198;2023-09-08T14:56:06;6.22;;;2.47;;
37205;SDS011;23099;42.636;23.198;2023-09-08T14:58:34;7.88;;;2.55;;
37205;SDS011;23099;42.636;23.198;2023-09-08T15:01:01;7.78;;;2.40;;